sensor_id;sensor_type;location;lat;lon;timestamp;P1;durP1;ratioP1;P2;durP2;ratioP2
4957;SDS011;2494;51.872;9.688;2023-02-01T00:01:28;14.70;;;4.70;;
4957;SDS011;2494;51.872;9.688;2023-02-01T00:04:13;11.97;;;3.77;;
4957;SDS011;2494;51.872;9.688;2023-02-01T00:07:00;19.33;;;3.80;;
4957;SDS011;2494;51.872;9.688;2023-02-01T00:09:45;11.30;;;3.80;;
4957;SDS011;2494;51.872;9.688;2023-02-01T00:12:31;14.53;;;3.60;;
4957;SDS011;2494;51.872;9.688;2023-02-01T00:15:16;17.97;;;4.60;;
4957;SDS011;2494;51.872;9.688;2023-02-01T00:18:01;12.90;;;3.77;;
4957;SDS011;2494;51.872;9.688;2023-02-01T00:20:46;22.47;;;4.33;;
4957;SDS011;2494;51.872;9.688;2023-02-01T00:23:33;13.50;;;6.67;;
4957;SDS011;2494;51.872;9.688;2023-02-01T00:26:19;14.20;;;4.30;;
4957;SDS011;2494;51.872;9.688;2023-02-01T00:29:08;11.80;;;4.07;;
4957;SDS011;2494;51.872;9.688;2023-02-01T00:31:54;20.30;;;5.77;;
4957;SDS011;2494;51.872;9.688;2023-02-01T00:34:39;14.83;;;5.10;;
4957;SDS011;2494;51.872;9.688;2023-02-01T00:37:24;17.53;;;6.13;;
4957;SDS011;2494;51.872;9.688;2023-02-01T00:40:12;15.30;;;3.53;;
4957;SDS011;2494;51.872;9.688;2023-02-01T00:42:57;15.37;;;4.80;;
4957;SDS011;2494;51.872;9.688;2023-02-01T00:45:42;15.10;;;4.03;;
4957;SDS011;2494;51.872;9.688;2023-02-01T00:48:27;11.37;;;3.43;;
4957;SDS011;2494;51.872;9.688;2023-02-01T00:51:14;19.13;;;3.63;;
4957;SDS011;2494;51.872;9.688;2023-02-01T00:54:00;13.20;;;4.80;;
4957;SDS011;2494;51.872;9.688;2023-02-01T00:56:48;13.27;;;3.60;;
4957;SDS011;2494;51.872;9.688;2023-02-01T00:59:33;22.63;;;4.43;;
4957;SDS011;2494;51.872;9.688;2023-02-01T01:02:18;12.30;;;3.93;;
4957;SDS011;2494;51.872;9.688;2023-02-01T01:05:04;14.23;;;3.60;;
4957;SDS011;2494;51.872;9.688;2023-02-01T01:07:49;12.40;;;3.40;;
4957;SDS011;2494;51.872;9.688;2023-02-01T01:10:34;9.90;;;3.70;;
4957;SDS011;2494;51.872;9.688;2023-02-01T01:13:21;10.33;;;3.50;;
4957;SDS011;2494;51.872;9.688;2023-02-01T01:16:07;10.43;;;3.03;;
4957;SDS011;2494;51.872;9.688;2023-02-01T01:18:53;9.90;;;4.30;;
4957;SDS011;2494;51.872;9.688;2023-02-01T01:21:38;14.33;;;2.90;;
4957;SDS011;2494;51.872;9.688;2023-02-01T01:24:23;13.10;;;3.23;;
4957;SDS011;2494;51.872;9.688;2023-02-01T01:27:09;11.33;;;3.30;;
4957;SDS011;2494;51.872;9.688;2023-02-01T01:29:56;19.63;;;3.63;;
4957;SDS011;2494;51.872;9.688;2023-02-01T01:32:41;15.20;;;3.70;;
4957;SDS011;2494;51.872;9.688;2023-02-01T01:35:28;18.10;;;5.33;;
4957;SDS011;2494;51.872;9.688;2023-02-01T01:38:14;8.27;;;3.93;;
4957;SDS011;2494;51.872;9.688;2023-02-01T01:40:59;16.30;;;4.80;;
4957;SDS011;2494;51.872;9.688;2023-02-01T01:43:49;16.17;;;4.30;;
4957;SDS011;2494;51.872;9.688;2023-02-01T01:46:36;16.40;;;4.80;;
4957;SDS011;2494;51.872;9.688;2023-02-01T01:49:23;20.60;;;5.47;;
4957;SDS011;2494;51.872;9.688;2023-02-01T01:52:09;9.03;;;3.73;;
4957;SDS011;2494;51.872;9.688;2023-02-01T01:54:55;14.07;;;3.80;;
4957;SDS011;2494;51.872;9.688;2023-02-01T01:57:42;11.70;;;4.80;;
4957;SDS011;2494;51.872;9.688;2023-02-01T02:00:29;15.57;;;4.40;;
4957;SDS011;2494;51.872;9.688;2023-02-01T02:03:17;12.40;;;5.07;;
4957;SDS011;2494;51.872;9.688;2023-02-01T02:06:02;13.80;;;4.60;;
4957;SDS011;2494;51.872;9.688;2023-02-01T02:08:48;12.17;;;4.60;;
4957;SDS011;2494;51.872;9.688;2023-02-01T02:11:34;12.80;;;4.70;;
4957;SDS011;2494;51.872;9.688;2023-02-01T02:14:20;13.87;;;5.33;;
4957;SDS011;2494;51.872;9.688;2023-02-01T02:17:18;14.57;;;5.30;;
4957;SDS011;2494;51.872;9.688;2023-02-01T02:26:35;12.77;;;4.10;;
4957;SDS011;2494;51.872;9.688;2023-02-01T02:29:35;18.37;;;7.27;;
4957;SDS011;2494;51.872;9.688;2023-02-01T02:32:38;21.17;;;4.83;;
4957;SDS011;2494;51.872;9.688;2023-02-01T02:35:31;26.20;;;5.90;;
4957;SDS011;2494;51.872;9.688;2023-02-01T02:38:18;13.57;;;5.40;;
4957;SDS011;2494;51.872;9.688;2023-02-01T02:41:07;21.70;;;5.70;;
4957;SDS011;2494;51.872;9.688;2023-02-01T02:43:53;11.47;;;5.37;;
4957;SDS011;2494;51.872;9.688;2023-02-01T02:47:00;9.93;;;4.00;;
4957;SDS011;2494;51.872;9.688;2023-02-01T02:50:09;23.10;;;5.87;;
4957;SDS011;2494;51.872;9.688;2023-02-01T02:53:16;17.23;;;5.03;;
4957;SDS011;2494;51.872;9.688;2023-02-01T02:56:20;11.07;;;4.60;;
4957;SDS011;2494;51.872;9.688;2023-02-01T02:59:24;10.50;;;5.20;;
4957;SDS011;2494;51.872;9.688;2023-02-01T03:02:28;12.57;;;6.90;;
4957;SDS011;2494;51.872;9.688;2023-02-01T03:05:32;23.20;;;6.93;;
4957;SDS011;2494;51.872;9.688;2023-02-01T03:08:19;20.80;;;5.93;;
4957;SDS011;2494;51.872;9.688;2023-02-01T03:11:05;12.70;;;5.53;;
4957;SDS011;2494;51.872;9.688;2023-02-01T03:13:51;13.13;;;5.60;;
4957;SDS011;2494;51.872;9.688;2023-02-01T03:16:36;16.73;;;6.07;;
4957;SDS011;2494;51.872;9.688;2023-02-01T03:19:26;14.60;;;5.50;;
4957;SDS011;2494;51.872;9.688;2023-02-01T03:22:14;18.47;;;6.30;;
4957;SDS011;2494;51.872;9.688;2023-02-01T03:25:03;21.83;;;6.07;;
4957;SDS011;2494;51.872;9.688;2023-02-01T03:27:51;18.53;;;6.87;;
4957;SDS011;2494;51.872;9.688;2023-02-01T03:30:37;14.83;;;6.20;;
4957;SDS011;2494;51.872;9.688;2023-02-01T03:33:25;15.70;;;6.57;;
4957;SDS011;2494;51.872;9.688;2023-02-01T03:36:15;16.37;;;6.47;;
4957;SDS011;2494;51.872;9.688;2023-02-01T03:39:02;24.13;;;8.60;;
4957;SDS011;2494;51.872;9.688;2023-02-01T03:41:53;15.20;;;6.93;;
4957;SDS011;2494;51.872;9.688;2023-02-01T03:44:51;18.07;;;6.70;;
4957;SDS011;2494;51.872;9.688;2023-02-01T03:47:39;17.87;;;7.27;;
4957;SDS011;2494;51.872;9.688;2023-02-01T03:50:25;16.80;;;6.90;;
4957;SDS011;2494;51.872;9.688;2023-02-01T03:53:12;19.73;;;7.67;;
4957;SDS011;2494;51.872;9.688;2023-02-01T03:55:59;20.93;;;8.77;;
4957;SDS011;2494;51.872;9.688;2023-02-01T03:58:46;18.30;;;7.90;;
4957;SDS011;2494;51.872;9.688;2023-02-01T04:01:42;18.10;;;7.27;;
4957;SDS011;2494;51.872;9.688;2023-02-01T04:04:27;21.33;;;6.93;;
4957;SDS011;2494;51.872;9.688;2023-02-01T04:07:12;17.40;;;7.93;;
4957;SDS011;2494;51.872;9.688;2023-02-01T04:09:57;15.60;;;7.30;;
4957;SDS011;2494;51.872;9.688;2023-02-01T04:12:42;22.73;;;7.70;;
4957;SDS011;2494;51.872;9.688;2023-02-01T04:15:29;25.00;;;10.23;;
4957;SDS011;2494;51.872;9.688;2023-02-01T04:18:14;10.73;;;7.00;;
4957;SDS011;2494;51.872;9.688;2023-02-01T04:20:59;15.00;;;7.80;;
4957;SDS011;2494;51.872;9.688;2023-02-01T04:23:46;21.60;;;6.50;;
4957;SDS011;2494;51.872;9.688;2023-02-01T04:26:31;15.33;;;8.03;;
4957;SDS011;2494;51.872;9.688;2023-02-01T04:29:16;12.03;;;6.10;;
4957;SDS011;2494;51.872;9.688;2023-02-01T04:32:04;11.57;;;6.10;;
4957;SDS011;2494;51.872;9.688;2023-02-01T04:34:49;15.23;;;5.70;;
4957;SDS011;2494;51.872;9.688;2023-02-01T04:37:34;21.23;;;5.20;;
4957;SDS011;2494;51.872;9.688;2023-02-01T04:40:20;14.87;;;5.50;;
4957;SDS011;2494;51.872;9.688;2023-02-01T04:43:04;22.60;;;6.63;;
4957;SDS011;2494;51.872;9.688;2023-02-01T04:45:50;17.60;;;6.13;;
4957;SDS011;2494;51.872;9.688;2023-02-01T04:48:37;12.30;;;6.03;;
4957;SDS011;2494;51.872;9.688;2023-02-01T04:51:22;14.93;;;5.57;;
4957;SDS011;2494;51.872;9.688;2023-02-01T04:54:07;13.70;;;5.47;;
4957;SDS011;2494;51.872;9.688;2023-02-01T04:56:52;10.43;;;4.67;;
4957;SDS011;2494;51.872;9.688;2023-02-01T04:59:38;13.30;;;5.83;;
4957;SDS011;2494;51.872;9.688;2023-02-01T05:02:23;17.20;;;6.37;;
4957;SDS011;2494;51.872;9.688;2023-02-01T05:05:10;13.90;;;5.50;;
4957;SDS011;2494;51.872;9.688;2023-02-01T05:07:55;15.13;;;4.80;;
4957;SDS011;2494;51.872;9.688;2023-02-01T05:10:40;18.37;;;4.53;;
4957;SDS011;2494;51.872;9.688;2023-02-01T05:13:26;13.90;;;4.47;;
4957;SDS011;2494;51.872;9.688;2023-02-01T05:16:28;23.37;;;5.63;;
4957;SDS011;2494;51.872;9.688;2023-02-01T05:19:13;18.40;;;4.67;;
4957;SDS011;2494;51.872;9.688;2023-02-01T05:22:00;17.53;;;3.77;;
4957;SDS011;2494;51.872;9.688;2023-02-01T05:24:45;26.20;;;5.93;;
4957;SDS011;2494;51.872;9.688;2023-02-01T05:27:31;21.40;;;5.87;;
4957;SDS011;2494;51.872;9.688;2023-02-01T05:30:17;16.60;;;4.77;;
4957;SDS011;2494;51.872;9.688;2023-02-01T05:33:03;14.53;;;4.93;;
4957;SDS011;2494;51.872;9.688;2023-02-01T05:35:48;12.07;;;4.47;;
4957;SDS011;2494;51.872;9.688;2023-02-01T05:38:35;14.47;;;4.60;;
4957;SDS011;2494;51.872;9.688;2023-02-01T05:41:20;9.93;;;5.07;;
4957;SDS011;2494;51.872;9.688;2023-02-01T05:44:06;13.63;;;3.93;;
4957;SDS011;2494;51.872;9.688;2023-02-01T05:46:51;12.93;;;5.87;;
4957;SDS011;2494;51.872;9.688;2023-02-01T05:49:37;17.20;;;5.53;;
4957;SDS011;2494;51.872;9.688;2023-02-01T05:52:22;22.00;;;4.37;;
4957;SDS011;2494;51.872;9.688;2023-02-01T05:55:09;9.23;;;4.00;;
4957;SDS011;2494;51.872;9.688;2023-02-01T05:57:54;10.80;;;4.50;;
4957;SDS011;2494;51.872;9.688;2023-02-01T06:00:39;14.53;;;3.93;;
4957;SDS011;2494;51.872;9.688;2023-02-01T06:03:24;13.20;;;4.87;;
4957;SDS011;2494;51.872;9.688;2023-02-01T06:06:09;10.93;;;4.23;;
4957;SDS011;2494;51.872;9.688;2023-02-01T06:08:54;15.20;;;4.40;;
4957;SDS011;2494;51.872;9.688;2023-02-01T06:11:41;12.73;;;6.00;;
4957;SDS011;2494;51.872;9.688;2023-02-01T06:14:27;11.63;;;4.03;;
4957;SDS011;2494;51.872;9.688;2023-02-01T06:17:12;16.03;;;4.30;;
4957;SDS011;2494;51.872;9.688;2023-02-01T06:19:57;12.10;;;4.40;;
4957;SDS011;2494;51.872;9.688;2023-02-01T06:22:43;9.80;;;4.70;;
4957;SDS011;2494;51.872;9.688;2023-02-01T06:25:28;7.63;;;3.87;;
4957;SDS011;2494;51.872;9.688;2023-02-01T06:28:15;13.70;;;4.83;;
4957;SDS011;2494;51.872;9.688;2023-02-01T06:31:02;8.83;;;4.40;;
4957;SDS011;2494;51.872;9.688;2023-02-01T06:33:49;12.07;;;4.70;;
4957;SDS011;2494;51.872;9.688;2023-02-01T06:36:36;10.37;;;4.70;;
4957;SDS011;2494;51.872;9.688;2023-02-01T06:39:21;11.20;;;4.83;;
4957;SDS011;2494;51.872;9.688;2023-02-01T06:42:07;14.83;;;4.47;;
4957;SDS011;2494;51.872;9.688;2023-02-01T06:44:53;10.23;;;4.70;;
4957;SDS011;2494;51.872;9.688;2023-02-01T06:47:39;14.20;;;5.93;;
4957;SDS011;2494;51.872;9.688;2023-02-01T06:50:24;12.60;;;4.80;;
4957;SDS011;2494;51.872;9.688;2023-02-01T06:53:09;12.40;;;4.77;;
4957;SDS011;2494;51.872;9.688;2023-02-01T06:55:55;12.63;;;4.40;;
4957;SDS011;2494;51.872;9.688;2023-02-01T06:58:40;16.83;;;4.90;;
4957;SDS011;2494;51.872;9.688;2023-02-01T07:01:27;15.90;;;5.20;;
4957;SDS011;2494;51.872;9.688;2023-02-01T07:04:12;11.70;;;4.37;;
4957;SDS011;2494;51.872;9.688;2023-02-01T07:06:58;9.20;;;4.50;;
4957;SDS011;2494;51.872;9.688;2023-02-01T07:09:43;17.77;;;5.47;;
4957;SDS011;2494;51.872;9.688;2023-02-01T07:12:29;14.63;;;6.00;;
4957;SDS011;2494;51.872;9.688;2023-02-01T07:15:14;13.97;;;6.40;;
4957;SDS011;2494;51.872;9.688;2023-02-01T07:18:01;12.90;;;4.73;;
4957;SDS011;2494;51.872;9.688;2023-02-01T07:20:49;20.10;;;6.30;;
4957;SDS011;2494;51.872;9.688;2023-02-01T07:23:34;17.40;;;5.97;;
4957;SDS011;2494;51.872;9.688;2023-02-01T07:26:20;20.37;;;7.13;;
4957;SDS011;2494;51.872;9.688;2023-02-01T07:29:05;12.97;;;5.07;;
4957;SDS011;2494;51.872;9.688;2023-02-01T07:31:50;14.03;;;5.83;;
4957;SDS011;2494;51.872;9.688;2023-02-01T07:34:37;8.27;;;2.80;;
4957;SDS011;2494;51.872;9.688;2023-02-01T07:37:22;12.13;;;4.73;;
4957;SDS011;2494;51.872;9.688;2023-02-01T07:40:11;22.70;;;4.47;;
4957;SDS011;2494;51.872;9.688;2023-02-01T07:42:56;11.17;;;4.80;;
4957;SDS011;2494;51.872;9.688;2023-02-01T07:45:42;20.57;;;4.87;;
4957;SDS011;2494;51.872;9.688;2023-02-01T07:48:28;15.37;;;6.33;;
4957;SDS011;2494;51.872;9.688;2023-02-01T07:51:15;15.77;;;4.63;;
4957;SDS011;2494;51.872;9.688;2023-02-01T07:54:01;16.77;;;4.70;;
4957;SDS011;2494;51.872;9.688;2023-02-01T07:56:46;22.40;;;6.37;;
4957;SDS011;2494;51.872;9.688;2023-02-01T07:59:37;13.60;;;4.60;;
4957;SDS011;2494;51.872;9.688;2023-02-01T08:02:43;14.53;;;4.13;;
4957;SDS011;2494;51.872;9.688;2023-02-01T08:05:28;17.47;;;5.63;;
4957;SDS011;2494;51.872;9.688;2023-02-01T08:08:15;19.30;;;5.00;;
4957;SDS011;2494;51.872;9.688;2023-02-01T08:11:00;15.63;;;4.50;;
4957;SDS011;2494;51.872;9.688;2023-02-01T08:13:46;10.60;;;4.60;;
4957;SDS011;2494;51.872;9.688;2023-02-01T08:16:32;12.27;;;3.77;;
4957;SDS011;2494;51.872;9.688;2023-02-01T08:19:19;11.57;;;4.20;;
4957;SDS011;2494;51.872;9.688;2023-02-01T08:22:04;11.37;;;4.80;;
4957;SDS011;2494;51.872;9.688;2023-02-01T08:24:52;6.43;;;4.17;;
4957;SDS011;2494;51.872;9.688;2023-02-01T08:27:45;7.60;;;3.83;;
4957;SDS011;2494;51.872;9.688;2023-02-01T08:30:30;16.17;;;6.40;;
4957;SDS011;2494;51.872;9.688;2023-02-01T08:33:15;10.87;;;3.83;;
4957;SDS011;2494;51.872;9.688;2023-02-01T08:36:01;16.40;;;4.00;;
4957;SDS011;2494;51.872;9.688;2023-02-01T08:38:47;10.50;;;4.47;;
4957;SDS011;2494;51.872;9.688;2023-02-01T08:41:34;22.87;;;4.70;;
4957;SDS011;2494;51.872;9.688;2023-02-01T08:44:19;17.20;;;3.90;;
4957;SDS011;2494;51.872;9.688;2023-02-01T08:47:04;11.13;;;4.10;;
4957;SDS011;2494;51.872;9.688;2023-02-01T08:49:49;13.50;;;4.47;;
4957;SDS011;2494;51.872;9.688;2023-02-01T08:52:35;11.50;;;3.20;;
4957;SDS011;2494;51.872;9.688;2023-02-01T08:55:20;9.73;;;3.20;;
4957;SDS011;2494;51.872;9.688;2023-02-01T08:58:06;10.17;;;4.07;;
4957;SDS011;2494;51.872;9.688;2023-02-01T09:00:52;12.53;;;2.97;;
4957;SDS011;2494;51.872;9.688;2023-02-01T09:03:37;10.47;;;4.10;;
4957;SDS011;2494;51.872;9.688;2023-02-01T09:06:22;12.83;;;3.00;;
4957;SDS011;2494;51.872;9.688;2023-02-01T09:09:07;12.03;;;3.40;;
4957;SDS011;2494;51.872;9.688;2023-02-01T09:11:53;14.30;;;3.60;;
4957;SDS011;2494;51.872;9.688;2023-02-01T09:14:40;12.93;;;4.60;;
4957;SDS011;2494;51.872;9.688;2023-02-01T09:17:25;12.10;;;3.27;;
4957;SDS011;2494;51.872;9.688;2023-02-01T09:20:11;11.13;;;2.77;;
4957;SDS011;2494;51.872;9.688;2023-02-01T09:22:56;8.47;;;3.00;;
4957;SDS011;2494;51.872;9.688;2023-02-01T09:25:41;12.13;;;3.50;;
4957;SDS011;2494;51.872;9.688;2023-02-01T09:28:26;10.63;;;3.50;;
4957;SDS011;2494;51.872;9.688;2023-02-01T09:31:13;12.37;;;2.53;;
4957;SDS011;2494;51.872;9.688;2023-02-01T09:33:58;9.63;;;3.40;;
4957;SDS011;2494;51.872;9.688;2023-02-01T09:36:43;12.73;;;3.00;;
4957;SDS011;2494;51.872;9.688;2023-02-01T09:39:28;18.20;;;6.20;;
4957;SDS011;2494;51.872;9.688;2023-02-01T09:42:16;12.03;;;3.33;;
4957;SDS011;2494;51.872;9.688;2023-02-01T09:45:17;10.47;;;3.60;;
4957;SDS011;2494;51.872;9.688;2023-02-01T09:48:08;6.70;;;2.33;;
4957;SDS011;2494;51.872;9.688;2023-02-01T09:50:56;8.63;;;3.50;;
4957;SDS011;2494;51.872;9.688;2023-02-01T09:53:43;11.23;;;3.53;;
4957;SDS011;2494;51.872;9.688;2023-02-01T09:56:32;12.47;;;3.27;;
4957;SDS011;2494;51.872;9.688;2023-02-01T09:59:23;14.30;;;5.10;;
4957;SDS011;2494;51.872;9.688;2023-02-01T10:02:11;15.13;;;2.80;;
4957;SDS011;2494;51.872;9.688;2023-02-01T10:04:59;7.70;;;3.23;;
4957;SDS011;2494;51.872;9.688;2023-02-01T10:07:47;15.30;;;3.43;;
4957;SDS011;2494;51.872;9.688;2023-02-01T10:10:35;16.50;;;4.40;;
4957;SDS011;2494;51.872;9.688;2023-02-01T10:13:34;7.67;;;2.77;;
4957;SDS011;2494;51.872;9.688;2023-02-01T10:16:28;13.37;;;3.40;;
4957;SDS011;2494;51.872;9.688;2023-02-01T10:19:28;7.57;;;3.50;;
4957;SDS011;2494;51.872;9.688;2023-02-01T10:22:20;6.83;;;2.63;;
4957;SDS011;2494;51.872;9.688;2023-02-01T10:25:13;8.33;;;2.97;;
4957;SDS011;2494;51.872;9.688;2023-02-01T10:27:59;12.57;;;3.67;;
4957;SDS011;2494;51.872;9.688;2023-02-01T10:30:46;12.10;;;3.20;;
4957;SDS011;2494;51.872;9.688;2023-02-01T10:33:32;16.43;;;2.40;;
4957;SDS011;2494;51.872;9.688;2023-02-01T10:36:19;8.13;;;2.60;;
4957;SDS011;2494;51.872;9.688;2023-02-01T10:39:09;10.77;;;2.30;;
4957;SDS011;2494;51.872;9.688;2023-02-01T10:41:57;5.87;;;2.47;;
4957;SDS011;2494;51.872;9.688;2023-02-01T10:44:43;9.60;;;3.20;;
4957;SDS011;2494;51.872;9.688;2023-02-01T10:47:31;6.87;;;2.37;;
4957;SDS011;2494;51.872;9.688;2023-02-01T10:50:18;8.57;;;3.13;;
4957;SDS011;2494;51.872;9.688;2023-02-01T10:53:06;11.47;;;2.73;;
4957;SDS011;2494;51.872;9.688;2023-02-01T10:55:57;6.17;;;3.20;;
4957;SDS011;2494;51.872;9.688;2023-02-01T10:58:50;8.57;;;3.90;;
4957;SDS011;2494;51.872;9.688;2023-02-01T11:01:37;12.67;;;5.60;;
4957;SDS011;2494;51.872;9.688;2023-02-01T11:04:23;13.83;;;3.07;;
4957;SDS011;2494;51.872;9.688;2023-02-01T11:07:13;8.63;;;2.50;;
4957;SDS011;2494;51.872;9.688;2023-02-01T11:10:00;9.17;;;2.40;;
4957;SDS011;2494;51.872;9.688;2023-02-01T11:12:47;6.90;;;2.67;;
4957;SDS011;2494;51.872;9.688;2023-02-01T11:15:38;12.13;;;2.53;;
4957;SDS011;2494;51.872;9.688;2023-02-01T11:18:26;14.33;;;4.20;;
4957;SDS011;2494;51.872;9.688;2023-02-01T11:21:11;13.73;;;3.90;;
4957;SDS011;2494;51.872;9.688;2023-02-01T11:24:00;8.83;;;4.07;;
4957;SDS011;2494;51.872;9.688;2023-02-01T11:26:45;10.23;;;2.63;;
4957;SDS011;2494;51.872;9.688;2023-02-01T11:29:34;8.30;;;3.57;;
4957;SDS011;2494;51.872;9.688;2023-02-01T11:32:20;16.87;;;4.30;;
4957;SDS011;2494;51.872;9.688;2023-02-01T11:35:07;15.47;;;3.77;;
4957;SDS011;2494;51.872;9.688;2023-02-01T11:37:58;9.53;;;3.00;;
4957;SDS011;2494;51.872;9.688;2023-02-01T11:40:44;11.37;;;4.10;;
4957;SDS011;2494;51.872;9.688;2023-02-01T11:43:29;5.90;;;3.90;;
4957;SDS011;2494;51.872;9.688;2023-02-01T11:46:18;7.43;;;4.20;;
4957;SDS011;2494;51.872;9.688;2023-02-01T11:49:15;21.60;;;5.53;;
4957;SDS011;2494;51.872;9.688;2023-02-01T11:52:07;10.80;;;4.20;;
4957;SDS011;2494;51.872;9.688;2023-02-01T11:55:02;11.57;;;5.20;;
4957;SDS011;2494;51.872;9.688;2023-02-01T11:57:57;19.03;;;5.80;;
4957;SDS011;2494;51.872;9.688;2023-02-01T12:00:48;10.97;;;5.17;;
4957;SDS011;2494;51.872;9.688;2023-02-01T12:06:46;13.53;;;5.60;;
4957;SDS011;2494;51.872;9.688;2023-02-01T12:09:37;12.23;;;7.03;;
4957;SDS011;2494;51.872;9.688;2023-02-01T12:12:25;13.53;;;6.10;;
4957;SDS011;2494;51.872;9.688;2023-02-01T12:15:16;14.93;;;5.57;;
4957;SDS011;2494;51.872;9.688;2023-02-01T12:21:26;16.83;;;5.20;;
4957;SDS011;2494;51.872;9.688;2023-02-01T12:27:23;10.33;;;6.13;;
4957;SDS011;2494;51.872;9.688;2023-02-01T12:30:27;17.90;;;7.10;;
4957;SDS011;2494;51.872;9.688;2023-02-01T12:33:18;7.30;;;5.70;;
4957;SDS011;2494;51.872;9.688;2023-02-01T12:36:09;15.97;;;9.10;;
4957;SDS011;2494;51.872;9.688;2023-02-01T12:38:57;10.87;;;7.57;;
4957;SDS011;2494;51.872;9.688;2023-02-01T12:41:49;11.93;;;8.07;;
4957;SDS011;2494;51.872;9.688;2023-02-01T12:44:39;15.03;;;8.40;;
4957;SDS011;2494;51.872;9.688;2023-02-01T12:47:26;17.83;;;7.50;;
4957;SDS011;2494;51.872;9.688;2023-02-01T12:50:14;15.13;;;6.50;;
4957;SDS011;2494;51.872;9.688;2023-02-01T12:53:06;19.00;;;9.03;;
4957;SDS011;2494;51.872;9.688;2023-02-01T12:55:53;17.93;;;9.00;;
4957;SDS011;2494;51.872;9.688;2023-02-01T12:58:40;9.67;;;7.20;;
4957;SDS011;2494;51.872;9.688;2023-02-01T13:01:30;12.00;;;8.93;;
4957;SDS011;2494;51.872;9.688;2023-02-01T13:04:18;9.03;;;7.50;;
4957;SDS011;2494;51.872;9.688;2023-02-01T13:07:07;17.50;;;8.00;;
4957;SDS011;2494;51.872;9.688;2023-02-01T13:09:55;11.73;;;7.53;;
4957;SDS011;2494;51.872;9.688;2023-02-01T13:12:44;11.90;;;8.50;;
4957;SDS011;2494;51.872;9.688;2023-02-01T13:15:31;12.53;;;7.80;;
4957;SDS011;2494;51.872;9.688;2023-02-01T13:18:21;13.27;;;8.77;;
4957;SDS011;2494;51.872;9.688;2023-02-01T13:21:12;16.00;;;8.30;;
4957;SDS011;2494;51.872;9.688;2023-02-01T13:23:59;10.40;;;8.03;;
4957;SDS011;2494;51.872;9.688;2023-02-01T13:26:45;18.20;;;9.53;;
4957;SDS011;2494;51.872;9.688;2023-02-01T13:29:31;13.40;;;7.80;;
4957;SDS011;2494;51.872;9.688;2023-02-01T13:32:22;24.03;;;9.30;;
4957;SDS011;2494;51.872;9.688;2023-02-01T13:41:25;7.80;;;7.10;;
4957;SDS011;2494;51.872;9.688;2023-02-01T13:44:13;10.40;;;7.90;;
4957;SDS011;2494;51.872;9.688;2023-02-01T13:47:01;17.73;;;7.63;;
4957;SDS011;2494;51.872;9.688;2023-02-01T13:49:47;11.60;;;7.50;;
4957;SDS011;2494;51.872;9.688;2023-02-01T13:52:34;10.63;;;8.37;;
4957;SDS011;2494;51.872;9.688;2023-02-01T13:55:29;9.63;;;7.30;;
4957;SDS011;2494;51.872;9.688;2023-02-01T13:58:18;8.57;;;5.80;;
4957;SDS011;2494;51.872;9.688;2023-02-01T14:04:44;8.93;;;7.07;;
4957;SDS011;2494;51.872;9.688;2023-02-01T14:07:21;9.40;;;7.27;;
4957;SDS011;2494;51.872;9.688;2023-02-01T14:13:12;11.97;;;6.97;;
4957;SDS011;2494;51.872;9.688;2023-02-01T14:16:15;12.13;;;8.33;;
4957;SDS011;2494;51.872;9.688;2023-02-01T14:19:00;11.50;;;7.00;;
4957;SDS011;2494;51.872;9.688;2023-02-01T14:21:47;12.10;;;8.30;;
4957;SDS011;2494;51.872;9.688;2023-02-01T14:24:33;16.93;;;8.23;;
4957;SDS011;2494;51.872;9.688;2023-02-01T14:27:23;11.20;;;8.07;;
4957;SDS011;2494;51.872;9.688;2023-02-01T14:30:14;12.47;;;7.20;;
4957;SDS011;2494;51.872;9.688;2023-02-01T14:33:01;9.03;;;6.97;;
4957;SDS011;2494;51.872;9.688;2023-02-01T14:35:59;12.00;;;7.40;;
4957;SDS011;2494;51.872;9.688;2023-02-01T14:38:47;10.93;;;7.70;;
4957;SDS011;2494;51.872;9.688;2023-02-01T14:41:33;10.60;;;6.00;;
4957;SDS011;2494;51.872;9.688;2023-02-01T14:44:24;1.90;;;1.80;;
4957;SDS011;2494;51.872;9.688;2023-02-01T14:50:27;1.50;;;1.37;;
4957;SDS011;2494;51.872;9.688;2023-02-01T14:53:17;1.00;;;0.90;;
4957;SDS011;2494;51.872;9.688;2023-02-01T14:56:05;2.33;;;1.20;;
4957;SDS011;2494;51.872;9.688;2023-02-01T14:58:55;3.07;;;1.30;;
4957;SDS011;2494;51.872;9.688;2023-02-01T15:01:46;2.43;;;1.00;;
4957;SDS011;2494;51.872;9.688;2023-02-01T15:04:40;1.60;;;0.83;;
4957;SDS011;2494;51.872;9.688;2023-02-01T15:07:27;1.60;;;0.70;;
4957;SDS011;2494;51.872;9.688;2023-02-01T15:10:13;1.90;;;1.03;;
4957;SDS011;2494;51.872;9.688;2023-02-01T15:12:58;2.20;;;2.07;;
4957;SDS011;2494;51.872;9.688;2023-02-01T15:15:44;1.60;;;1.50;;
4957;SDS011;2494;51.872;9.688;2023-02-01T15:18:29;5.40;;;4.90;;
4957;SDS011;2494;51.872;9.688;2023-02-01T15:21:16;2.10;;;1.97;;
4957;SDS011;2494;51.872;9.688;2023-02-01T15:24:12;2.27;;;1.73;;
4957;SDS011;2494;51.872;9.688;2023-02-01T15:27:02;3.50;;;3.20;;
4957;SDS011;2494;51.872;9.688;2023-02-01T15:29:48;9.20;;;4.47;;
4957;SDS011;2494;51.872;9.688;2023-02-01T15:32:34;3.30;;;2.60;;
4957;SDS011;2494;51.872;9.688;2023-02-01T15:35:32;5.47;;;2.40;;
4957;SDS011;2494;51.872;9.688;2023-02-01T15:38:20;3.20;;;1.50;;
4957;SDS011;2494;51.872;9.688;2023-02-01T15:41:11;4.13;;;2.10;;
4957;SDS011;2494;51.872;9.688;2023-02-01T15:44:03;2.13;;;1.90;;
4957;SDS011;2494;51.872;9.688;2023-02-01T15:46:49;7.23;;;2.80;;
4957;SDS011;2494;51.872;9.688;2023-02-01T15:49:36;10.60;;;3.43;;
4957;SDS011;2494;51.872;9.688;2023-02-01T15:52:24;7.40;;;4.47;;
4957;SDS011;2494;51.872;9.688;2023-02-01T15:55:17;5.20;;;2.37;;
4957;SDS011;2494;51.872;9.688;2023-02-01T15:58:06;11.57;;;4.93;;
4957;SDS011;2494;51.872;9.688;2023-02-01T16:00:52;4.60;;;2.50;;
4957;SDS011;2494;51.872;9.688;2023-02-01T16:03:39;4.77;;;3.03;;
4957;SDS011;2494;51.872;9.688;2023-02-01T16:06:28;12.03;;;4.23;;
4957;SDS011;2494;51.872;9.688;2023-02-01T16:09:16;4.50;;;2.13;;
4957;SDS011;2494;51.872;9.688;2023-02-01T16:12:02;2.63;;;1.57;;
4957;SDS011;2494;51.872;9.688;2023-02-01T16:14:49;7.70;;;4.13;;
4957;SDS011;2494;51.872;9.688;2023-02-01T16:17:35;8.77;;;3.77;;
4957;SDS011;2494;51.872;9.688;2023-02-01T16:20:20;11.90;;;6.40;;
4957;SDS011;2494;51.872;9.688;2023-02-01T16:23:06;5.37;;;3.33;;
4957;SDS011;2494;51.872;9.688;2023-02-01T16:25:51;3.43;;;2.60;;
4957;SDS011;2494;51.872;9.688;2023-02-01T16:28:37;8.83;;;2.20;;
4957;SDS011;2494;51.872;9.688;2023-02-01T16:31:27;5.73;;;1.90;;
4957;SDS011;2494;51.872;9.688;2023-02-01T16:34:13;5.00;;;2.00;;
4957;SDS011;2494;51.872;9.688;2023-02-01T16:37:00;8.10;;;2.80;;
4957;SDS011;2494;51.872;9.688;2023-02-01T16:39:46;13.23;;;3.70;;
4957;SDS011;2494;51.872;9.688;2023-02-01T16:42:31;2.43;;;1.50;;
4957;SDS011;2494;51.872;9.688;2023-02-01T16:45:17;1.20;;;0.87;;
4957;SDS011;2494;51.872;9.688;2023-02-01T16:48:04;1.70;;;1.10;;
4957;SDS011;2494;51.872;9.688;2023-02-01T16:50:50;2.43;;;1.30;;
4957;SDS011;2494;51.872;9.688;2023-02-01T16:53:36;3.50;;;2.00;;
4957;SDS011;2494;51.872;9.688;2023-02-01T16:56:22;6.07;;;3.27;;
4957;SDS011;2494;51.872;9.688;2023-02-01T16:59:07;7.53;;;3.63;;
4957;SDS011;2494;51.872;9.688;2023-02-01T17:01:53;4.93;;;1.90;;
4957;SDS011;2494;51.872;9.688;2023-02-01T17:04:40;4.93;;;3.87;;
4957;SDS011;2494;51.872;9.688;2023-02-01T17:07:25;3.53;;;3.23;;
4957;SDS011;2494;51.872;9.688;2023-02-01T17:10:11;6.47;;;3.37;;
4957;SDS011;2494;51.872;9.688;2023-02-01T17:13:02;12.10;;;2.83;;
4957;SDS011;2494;51.872;9.688;2023-02-01T17:15:49;5.57;;;2.30;;
4957;SDS011;2494;51.872;9.688;2023-02-01T17:18:35;12.73;;;2.70;;
4957;SDS011;2494;51.872;9.688;2023-02-01T17:21:22;21.73;;;4.30;;
4957;SDS011;2494;51.872;9.688;2023-02-01T17:24:09;16.80;;;4.00;;
4957;SDS011;2494;51.872;9.688;2023-02-01T17:26:54;9.90;;;3.17;;
4957;SDS011;2494;51.872;9.688;2023-02-01T17:29:39;10.87;;;3.50;;
4957;SDS011;2494;51.872;9.688;2023-02-01T17:32:26;5.60;;;2.40;;
4957;SDS011;2494;51.872;9.688;2023-02-01T17:35:15;13.17;;;3.00;;
4957;SDS011;2494;51.872;9.688;2023-02-01T17:38:05;14.83;;;3.13;;
4957;SDS011;2494;51.872;9.688;2023-02-01T17:40:50;8.63;;;2.03;;
4957;SDS011;2494;51.872;9.688;2023-02-01T17:43:36;6.97;;;2.37;;